createdAt,value
2023-05-22T00:00:18.653Z,1.04
2023-05-22T00:01:18.367Z,1.04
2023-05-22T00:02:18.560Z,1.04
2023-05-22T00:03:18.707Z,1.04
2023-05-22T00:04:18.809Z,1.04
2023-05-22T00:05:19.023Z,1.04
2023-05-22T00:06:19.060Z,1.04
2023-05-22T00:07:19.242Z,1.04
2023-05-22T00:08:19.377Z,1.04
2023-05-22T00:09:19.551Z,1.04
2023-05-22T00:10:19.657Z,1.04
2023-05-22T00:11:19.782Z,1.04
2023-05-22T00:12:19.943Z,1.04
2023-05-22T00:13:20.039Z,1.04
2023-05-22T00:14:20.182Z,1.04
2023-05-22T00:15:20.736Z,1.04
2023-05-22T00:16:20.457Z,1.04
2023-05-22T00:17:20.694Z,1.04
2023-05-22T00:18:20.683Z,1.04
2023-05-22T00:19:20.844Z,1.04
2023-05-22T00:20:21.020Z,1.04
2023-05-22T00:21:21.150Z,1.04
2023-05-22T00:22:21.265Z,1.04
2023-05-22T00:23:21.414Z,1.04
2023-05-22T00:24:21.573Z,1.04
2023-05-22T00:25:21.721Z,1.04
2023-05-22T00:26:21.866Z,1.04
2023-05-22T00:27:22.010Z,1.04
2023-05-22T00:28:22.171Z,1.04
2023-05-22T00:29:22.330Z,1.04
2023-05-22T00:30:22.458Z,1.04
2023-05-22T00:31:22.633Z,1.04
2023-05-22T00:32:22.855Z,1.04
2023-05-22T00:33:22.920Z,1.04
2023-05-22T00:34:23.156Z,1.04
2023-05-22T00:35:23.236Z,1.04
2023-05-22T00:36:23.378Z,1.04
2023-05-22T00:37:23.541Z,1.04
2023-05-22T00:38:23.682Z,1.04
2023-05-22T00:39:23.841Z,1.04
2023-05-22T00:40:23.971Z,1.04
2023-05-22T00:41:24.146Z,1.04
2023-05-22T00:42:24.350Z,1.04
2023-05-22T00:43:24.438Z,1.04
2023-05-22T00:44:25.034Z,1.04
2023-05-22T00:45:24.698Z,1.04
2023-05-22T00:46:24.835Z,1.04
2023-05-22T00:47:24.985Z,1.04
2023-05-22T00:48:25.096Z,1.04
2023-05-22T00:49:25.239Z,1.04
2023-05-22T00:50:25.436Z,1.04
2023-05-22T00:51:25.571Z,1.04
2023-05-22T00:52:25.710Z,1.04
2023-05-22T00:53:26.045Z,1.04
2023-05-22T00:54:26.033Z,1.04
2023-05-22T00:55:26.160Z,1.04
2023-05-22T00:56:26.308Z,1.04
2023-05-22T00:57:26.468Z,1.04
2023-05-22T00:58:26.753Z,1.04
2023-05-22T00:59:27.291Z,1.04
2023-05-22T01:00:26.925Z,1.04
2023-05-22T01:01:27.101Z,1.04
2023-05-22T01:02:27.224Z,1.04
2023-05-22T01:03:27.726Z,1.04
2023-05-22T01:04:27.538Z,1.04
2023-05-22T01:05:27.673Z,1.04
2023-05-22T01:06:27.829Z,1.04
2023-05-22T01:07:27.976Z,1.04
2023-05-22T01:08:28.136Z,1.04
2023-05-22T01:09:28.282Z,1.04
2023-05-22T01:10:28.402Z,1.04
2023-05-22T01:11:28.533Z,1.04
2023-05-22T01:12:28.698Z,1.04
2023-05-22T01:13:28.848Z,1.04
2023-05-22T01:14:29.527Z,1.04
2023-05-22T01:15:29.125Z,1.04
2023-05-22T01:16:29.271Z,1.04
2023-05-22T01:17:29.422Z,1.04
2023-05-22T01:18:29.563Z,1.04
2023-05-22T01:19:29.858Z,1.04
2023-05-22T01:20:29.814Z,1.04
2023-05-22T01:21:29.956Z,1.04
2023-05-22T01:22:30.120Z,1.04
2023-05-22T01:23:30.263Z,1.04
2023-05-22T01:24:30.369Z,1.04
2023-05-22T01:25:30.525Z,1.04
2023-05-22T01:26:30.668Z,1.04
2023-05-22T01:27:30.810Z,1.04
2023-05-22T01:28:31.019Z,1.04
2023-05-22T01:29:31.723Z,1.04
2023-05-22T01:30:31.266Z,1.04
2023-05-22T01:31:31.398Z,1.04
2023-05-22T01:32:31.585Z,1.04
2023-05-22T01:33:31.705Z,1.04
2023-05-22T01:34:31.797Z,1.04
2023-05-22T01:35:31.936Z,1.04
2023-05-22T01:36:32.082Z,1.04
2023-05-22T01:37:32.227Z,1.04
2023-05-22T01:38:32.304Z,1.04
2023-05-22T01:39:32.408Z,1.04
2023-05-22T01:40:32.592Z,1.04
2023-05-22T01:41:32.727Z,1.04
2023-05-22T01:42:32.862Z,1.04
2023-05-22T01:43:33.013Z,1.04
2023-05-22T01:44:33.164Z,1.04
2023-05-22T01:45:33.301Z,1.04
2023-05-22T01:46:33.460Z,1.04
2023-05-22T01:47:33.659Z,1.04
2023-05-22T01:48:33.743Z,1.04
2023-05-22T01:49:33.892Z,1.04
2023-05-22T01:50:33.991Z,1.04
2023-05-22T01:51:34.173Z,1.04
2023-05-22T01:52:34.284Z,1.04
2023-05-22T01:53:34.897Z,1.04
2023-05-22T01:54:34.630Z,1.04
2023-05-22T01:55:34.780Z,1.04
2023-05-22T01:56:34.908Z,1.04
2023-05-22T01:57:35.022Z,1.04
2023-05-22T01:58:35.172Z,1.04
2023-05-22T01:59:35.763Z,1.04
2023-05-22T02:01:35.637Z,1.04
2023-05-22T02:02:35.875Z,1.04
2023-05-22T02:03:35.999Z,1.04
2023-05-22T02:04:36.094Z,1.04
2023-05-22T02:05:36.250Z,1.04
2023-05-22T02:06:36.342Z,1.04
2023-05-22T02:07:36.546Z,1.04
2023-05-22T02:08:36.645Z,1.04
2023-05-22T02:09:36.796Z,1.04
2023-05-22T02:10:37.025Z,1.04
2023-05-22T02:11:37.110Z,1.04
2023-05-22T02:12:37.245Z,1.04
2023-05-22T02:13:37.408Z,1.04
2023-05-22T02:14:37.988Z,1.04
2023-05-22T02:15:37.773Z,1.04
2023-05-22T02:16:37.803Z,1.04
2023-05-22T02:17:37.964Z,1.04
2023-05-22T02:18:38.118Z,1.04
2023-05-22T02:19:38.324Z,1.04
2023-05-22T02:20:38.671Z,1.04
2023-05-22T02:21:38.601Z,1.04
2023-05-22T02:22:38.733Z,1.04
2023-05-22T02:23:38.880Z,1.04
2023-05-22T02:24:38.979Z,1.04
2023-05-22T02:25:39.131Z,2
2023-05-22T02:26:39.268Z,2
2023-05-22T02:27:39.431Z,2
2023-05-22T02:28:39.585Z,2
2023-05-22T02:29:40.272Z,2
2023-05-22T02:30:40.070Z,2
2023-05-22T02:31:40.160Z,3.04
2023-05-22T02:32:40.201Z,3.04
2023-05-22T02:33:40.296Z,3.04
2023-05-22T02:34:40.443Z,4
2023-05-22T02:35:40.593Z,4
2023-05-22T02:36:40.694Z,5.04
2023-05-22T02:37:40.838Z,6
2023-05-22T02:38:40.938Z,6
2023-05-22T02:39:41.044Z,7.04
2023-05-22T02:40:41.432Z,8
2023-05-22T02:41:41.352Z,9.04
2023-05-22T02:42:41.503Z,11.04
2023-05-22T02:43:41.646Z,12
2023-05-22T02:44:41.751Z,14
2023-05-22T02:45:41.891Z,16
2023-05-22T02:46:42.102Z,18
2023-05-22T02:47:42.228Z,21.04
2023-05-22T02:48:42.347Z,24
2023-05-22T02:49:42.526Z,27.04
2023-05-22T02:50:42.672Z,31.04
2023-05-22T02:51:42.818Z,36
2023-05-22T02:52:42.970Z,41.04
2023-05-22T02:53:43.122Z,46
2023-05-22T02:54:43.306Z,53.04
2023-05-22T02:55:43.383Z,100
2023-05-22T02:56:43.621Z,113.04
2023-05-22T02:57:43.676Z,126
2023-05-22T02:58:43.765Z,138
2023-05-22T02:59:44.383Z,154
2023-05-22T03:00:44.067Z,169.12
2023-05-22T03:01:44.276Z,188
2023-05-22T03:02:44.485Z,203.04
2023-05-22T03:03:44.659Z,221.12
2023-05-22T03:04:44.694Z,243.04
2023-05-22T03:05:44.834Z,262.08
2023-05-22T03:06:44.953Z,287.04
2023-05-22T03:07:47.550Z,310.08
2023-05-22T03:08:45.249Z,335.04
2023-05-22T03:09:45.350Z,360
2023-05-22T03:10:45.524Z,397.12
2023-05-22T03:11:45.652Z,426.24
2023-05-22T03:12:45.817Z,461.12
2023-05-22T03:13:45.970Z,506.24
2023-05-22T03:14:46.582Z,548.16
2023-05-22T03:15:46.252Z,594.24
2023-05-22T03:16:46.429Z,653.12
2023-05-22T03:17:46.556Z,708.48
2023-05-22T03:18:46.700Z,759.04
2023-05-22T03:19:46.820Z,833.28
2023-05-22T03:20:46.965Z,891.52
2023-05-22T03:21:47.109Z,955.52
2023-05-22T03:22:47.253Z,1039.36
2023-05-22T03:23:47.408Z,1110.4
2023-05-22T03:24:47.521Z,1181.44
2023-05-22T03:25:47.686Z,1250.56
2023-05-22T03:26:47.770Z,1313.28
2023-05-22T03:27:47.942Z,1463.04
2023-05-22T03:28:48.108Z,1557.76
2023-05-22T03:29:48.779Z,1683.2
2023-05-22T03:30:48.395Z,1799.68
2023-05-22T03:31:48.480Z,1908.48
2023-05-22T03:32:48.701Z,2016
2023-05-22T03:33:48.839Z,2149.12
2023-05-22T03:34:48.939Z,2263.04
2023-05-22T03:35:49.054Z,2368
2023-05-22T03:36:49.204Z,2494.72
2023-05-22T03:37:49.352Z,2607.36
2023-05-22T03:38:49.472Z,2749.44
2023-05-22T03:39:49.599Z,2885.12
2023-05-22T03:40:49.761Z,3051.52
2023-05-22T03:41:49.949Z,3240.96
2023-05-22T03:42:50.064Z,3409.92
2023-05-22T03:43:50.213Z,3586.56
2023-05-22T03:44:51.037Z,3837.44
2023-05-22T03:45:50.566Z,4032
2023-05-22T03:46:50.639Z,4282.88
2023-05-22T03:47:50.814Z,4485.12
2023-05-22T03:48:50.944Z,4707.84
2023-05-22T03:49:51.066Z,4912.64
2023-05-22T03:50:51.217Z,5012.48
2023-05-22T03:51:51.388Z,5048.32
2023-05-22T03:52:51.521Z,5012.48
2023-05-22T03:53:51.633Z,5004.8
2023-05-22T03:54:51.804Z,5058.56
2023-05-22T03:55:51.926Z,5145.6
2023-05-22T03:56:52.053Z,5253.12
2023-05-22T03:57:52.179Z,5452.8
2023-05-22T03:58:52.348Z,5719.04
2023-05-22T03:59:52.965Z,5811.2
2023-05-22T04:00:52.669Z,5836.8
2023-05-22T04:01:52.786Z,5975.04
2023-05-22T04:02:52.971Z,6210.56
2023-05-22T04:03:53.097Z,6471.68
2023-05-22T04:04:53.299Z,6676.48
2023-05-22T04:05:53.460Z,6952.96
2023-05-22T04:06:53.560Z,7249.92
2023-05-22T04:07:53.663Z,7449.6
2023-05-22T04:08:53.814Z,7726.08
2023-05-22T04:09:53.964Z,7971.84
2023-05-22T04:10:54.091Z,8058.88
2023-05-22T04:11:54.185Z,8340.48
2023-05-22T04:12:54.338Z,8785.92
2023-05-22T04:13:54.492Z,9103.359
2023-05-22T04:14:54.594Z,8975.359
2023-05-22T04:15:54.760Z,8734.72
2023-05-22T04:16:54.909Z,8535.04
2023-05-22T04:17:55.097Z,8391.68
2023-05-22T04:18:55.157Z,8376.32
2023-05-22T04:19:55.333Z,8540.16
2023-05-22T04:20:55.457Z,8857.6
2023-05-22T04:21:55.608Z,9272.319
2023-05-22T04:22:55.758Z,9789.439
2023-05-22T04:23:56.611Z,10127.359
2023-05-22T04:24:56.240Z,10357.76
2023-05-22T04:25:56.382Z,10629.12
2023-05-22T04:26:56.527Z,10792.96
2023-05-22T04:27:56.691Z,11182.08
2023-05-22T04:28:56.834Z,11612.16
2023-05-22T04:29:57.425Z,12011.52
2023-05-22T04:30:57.152Z,12185.6
2023-05-22T04:31:57.314Z,11929.6
2023-05-22T04:32:57.489Z,11898.88
2023-05-22T04:33:57.615Z,12154.88
2023-05-22T04:34:57.746Z,12574.72
2023-05-22T04:35:57.907Z,12769.279
2023-05-22T04:36:58.041Z,13905.92
2023-05-22T04:37:58.208Z,14848
2023-05-22T04:38:58.353Z,15626.239
2023-05-22T04:39:58.548Z,16332.8
2023-05-22T04:40:58.680Z,17694.72
2023-05-22T04:41:58.823Z,19015.68
2023-05-22T04:42:58.955Z,20234.24
2023-05-22T04:43:59.079Z,21852.16
2023-05-22T04:44:59.654Z,22712.32
2023-05-22T04:45:59.278Z,23449.6
2023-05-22T04:46:59.557Z,23838.72
2023-05-22T04:47:59.622Z,24002.56
2023-05-22T04:48:59.659Z,24207.36
2023-05-22T04:49:59.767Z,24371.2
2023-05-22T04:50:59.885Z,24719.36
2023-05-22T04:52:00.043Z,25395.2
2023-05-22T04:53:00.173Z,26746.88
2023-05-22T04:54:00.339Z,27443.2
2023-05-22T04:55:01.209Z,28119.04
2023-05-22T04:56:00.648Z,28446.72
2023-05-22T04:57:00.790Z,28774.4
2023-05-22T04:58:00.912Z,30167.04
2023-05-22T04:59:01.052Z,31477.76
2023-05-22T05:00:01.650Z,32522.24
2023-05-22T05:01:01.407Z,33976.32
2023-05-22T05:02:01.451Z,35287.04
2023-05-22T05:03:01.714Z,36065.28
2023-05-22T05:04:01.770Z,36823.04
2023-05-22T05:05:01.921Z,37949.44
2023-05-22T05:06:02.069Z,39034.88
2023-05-22T05:07:02.216Z,38563.84
2023-05-22T05:08:02.375Z,39731.2
2023-05-22T05:09:02.507Z,41328.64
2023-05-22T05:10:02.626Z,41799.68
2023-05-22T05:11:02.789Z,42106.88
2023-05-22T05:12:02.926Z,42680.32
2023-05-22T05:13:03.077Z,42926.08
2023-05-22T05:14:03.226Z,43745.28
2023-05-22T05:15:03.900Z,44687.36
2023-05-22T05:16:03.554Z,45219.84
2023-05-22T05:17:03.724Z,45670.4
2023-05-22T05:18:03.797Z,46612.48
2023-05-22T05:19:04.068Z,47554.56
2023-05-22T05:20:04.104Z,48824.32
2023-05-22T05:21:04.162Z,48988.16
2023-05-22T05:22:04.362Z,49602.56
2023-05-22T05:23:04.491Z,50421.76
2023-05-22T05:24:04.595Z,50913.28
2023-05-22T05:25:04.778Z,50913.28
2023-05-22T05:26:05.385Z,51200
2023-05-22T05:27:05.010Z,51445.76
2023-05-22T05:28:05.580Z,52019.2
2023-05-22T05:29:05.251Z,52879.36
2023-05-22T05:30:05.826Z,53616.64
2023-05-22T05:31:05.566Z,54149.12
2023-05-22T05:32:05.748Z,54394.88
2023-05-22T05:33:05.876Z,54681.6
2023-05-22T05:34:05.953Z,53698.56
2023-05-22T05:35:06.109Z,51118.08
2023-05-22T05:36:06.264Z,49971.2
2023-05-22T05:37:06.456Z,51404.8
2023-05-22T05:38:06.531Z,51363.84
2023-05-22T05:39:06.667Z,54435.84
2023-05-22T05:40:06.964Z,58204.16
2023-05-22T05:41:06.929Z,59105.28
2023-05-22T05:42:07.058Z,60211.2
2023-05-22T05:43:08.529Z,61685.76
2023-05-22T05:44:07.375Z,62832.64
2023-05-22T05:45:08.110Z,63569.92
2023-05-22T05:46:07.765Z,63938.56
2023-05-22T05:47:07.836Z,64389.12
2023-05-22T05:48:08.063Z,65003.52
2023-05-22T05:49:08.077Z,65658.88
2023-05-22T05:50:08.193Z,66600.96
2023-05-22T05:51:08.329Z,67297.28
2023-05-22T05:52:08.498Z,66273.28
2023-05-22T05:53:08.673Z,67624.96
2023-05-22T05:54:08.795Z,66560
2023-05-22T05:55:08.908Z,68444.16
2023-05-22T05:56:09.038Z,67952.64
2023-05-22T05:57:09.183Z,68321.28
2023-05-22T05:58:09.340Z,69836.8
2023-05-22T05:59:09.469Z,70533.12
2023-05-22T06:00:10.072Z,71311.36
2023-05-22T06:01:09.787Z,71802.88
2023-05-22T06:02:09.926Z,71024.64
2023-05-22T06:03:10.144Z,70205.44
2023-05-22T06:04:10.115Z,69591.04
2023-05-22T06:05:10.308Z,68239.36
2023-05-22T06:06:10.426Z,59719.68
2023-05-22T06:07:10.572Z,60334.08
2023-05-22T06:08:10.744Z,63774.72
2023-05-22T06:09:10.891Z,66232.32
2023-05-22T06:10:11.031Z,66519.04
2023-05-22T06:11:11.119Z,66027.52
2023-05-22T06:12:11.268Z,66232.32
2023-05-22T06:13:11.384Z,63897.6
2023-05-22T06:14:11.537Z,63037.44
2023-05-22T06:15:12.160Z,62955.52
2023-05-22T06:16:11.833Z,62136.32
2023-05-22T06:17:11.982Z,65085.44
2023-05-22T06:18:12.135Z,63856.64
2023-05-22T06:19:12.253Z,65904.64
2023-05-22T06:20:12.376Z,60825.6
2023-05-22T06:21:12.538Z,60866.56
2023-05-22T06:22:12.707Z,68976.64
2023-05-22T06:23:12.848Z,69099.52
2023-05-22T06:24:12.944Z,63569.92
2023-05-22T06:25:13.099Z,61194.24
2023-05-22T06:26:13.221Z,61931.52
2023-05-22T06:27:13.299Z,62218.24
2023-05-22T06:28:13.407Z,62504.96
2023-05-22T06:29:13.560Z,66560
2023-05-22T06:30:14.909Z,69140.48
2023-05-22T06:31:13.925Z,72908.8
2023-05-22T06:32:14.028Z,75735.04
2023-05-22T06:33:14.182Z,77496.32
2023-05-22T06:34:14.333Z,78069.76
2023-05-22T06:35:14.431Z,78356.48
2023-05-22T06:36:14.546Z,76267.52
2023-05-22T06:37:14.660Z,71557.12
2023-05-22T06:38:14.772Z,73850.88
2023-05-22T06:39:14.970Z,75571.2
2023-05-22T06:40:15.075Z,76840.96
2023-05-22T06:41:15.219Z,70164.48
2023-05-22T06:42:15.398Z,68485.12
2023-05-22T06:43:15.536Z,73236.48
2023-05-22T06:44:15.689Z,69550.08
2023-05-22T06:45:16.435Z,74178.56
2023-05-22T06:46:16.031Z,82739.2
2023-05-22T06:47:16.175Z,82001.92
2023-05-22T06:48:16.271Z,81141.76
2023-05-22T06:49:16.396Z,71802.88
2023-05-22T06:50:16.549Z,73154.56
2023-05-22T06:51:16.691Z,71393.28
2023-05-22T06:52:16.796Z,73809.92
2023-05-22T06:53:17.004Z,77824
2023-05-22T06:54:17.107Z,77864.96
2023-05-22T06:55:17.251Z,80732.16
2023-05-22T06:56:17.410Z,78479.36
2023-05-22T06:57:18.009Z,81469.44
2023-05-22T06:58:17.717Z,84213.76
2023-05-22T06:59:17.886Z,82821.12
2023-05-22T07:00:20.365Z,86835.2
2023-05-22T07:02:18.319Z,81018.88
2023-05-22T07:03:18.477Z,79749.12
2023-05-22T07:04:18.629Z,84295.68
2023-05-22T07:05:18.781Z,79462.4
2023-05-22T07:06:18.927Z,80117.76
2023-05-22T07:07:19.031Z,87654.4
2023-05-22T07:08:19.164Z,87162.88
2023-05-22T07:09:19.356Z,85524.48
2023-05-22T07:10:19.547Z,87080.96
2023-05-22T07:11:19.680Z,83394.56
2023-05-22T07:12:19.790Z,78848
2023-05-22T07:13:19.946Z,79339.52
2023-05-22T07:14:20.104Z,76185.6
2023-05-22T07:15:20.584Z,74014.72
2023-05-22T07:16:20.630Z,72704
2023-05-22T07:17:20.890Z,74874.88
2023-05-22T07:18:20.640Z,79216.64
2023-05-22T07:19:20.837Z,77864.96
2023-05-22T07:20:20.904Z,77660.16
2023-05-22T07:21:21.053Z,77537.28
2023-05-22T07:22:21.211Z,72253.44
2023-05-22T07:23:21.374Z,71843.84
2023-05-22T07:24:21.527Z,66600.96
2023-05-22T07:25:21.662Z,63651.84
2023-05-22T07:26:21.803Z,62545.92
2023-05-22T07:27:21.922Z,62464
2023-05-22T07:28:22.075Z,58941.44
2023-05-22T07:29:23.362Z,56565.76
2023-05-22T07:30:22.337Z,59596.8
2023-05-22T07:31:22.529Z,61194.24
2023-05-22T07:32:22.882Z,63815.68
2023-05-22T07:33:22.726Z,67133.44
2023-05-22T07:34:22.861Z,70574.08
2023-05-22T07:35:23.366Z,72294.4
2023-05-22T07:36:23.141Z,73359.36
2023-05-22T07:37:23.297Z,72704
2023-05-22T07:38:23.383Z,70205.44
2023-05-22T07:39:23.529Z,73973.76
2023-05-22T07:40:24.474Z,70901.76
2023-05-22T07:41:23.796Z,76431.36
2023-05-22T07:42:23.946Z,68116.48
2023-05-22T07:43:24.082Z,68280.32
2023-05-22T07:44:24.650Z,71270.4
2023-05-22T07:46:24.514Z,85606.4
2023-05-22T07:47:24.669Z,89948.16
2023-05-22T07:48:24.805Z,93962.23
2023-05-22T07:49:24.930Z,96829.44
2023-05-22T07:50:25.336Z,98058.23
2023-05-22T07:51:25.315Z,101089.28
2023-05-22T07:52:25.411Z,101171.2
2023-05-22T07:53:25.562Z,99942.4
2023-05-22T07:54:25.778Z,96665.6
2023-05-22T07:55:25.779Z,99041.28
2023-05-22T07:56:25.936Z,100352
2023-05-22T07:57:26.031Z,101253.12
2023-05-22T07:58:26.221Z,103219.2
2023-05-22T07:59:26.343Z,104448
2023-05-22T08:00:26.509Z,105021.44
2023-05-22T08:01:26.639Z,105103.36
2023-05-22T08:02:26.925Z,105185.28
2023-05-22T08:03:27.000Z,105594.88
2023-05-22T08:04:27.082Z,105349.12
2023-05-22T08:05:27.200Z,106577.91
2023-05-22T08:06:27.346Z,106741.76
2023-05-22T08:07:27.542Z,106414.08
2023-05-22T08:08:28.871Z,106414.08
2023-05-22T08:09:27.875Z,106659.84
2023-05-22T08:10:30.199Z,106905.59
2023-05-22T08:11:28.159Z,107315.2
2023-05-22T08:12:28.304Z,107642.88
2023-05-22T08:13:28.381Z,107151.36
2023-05-22T08:14:28.474Z,107642.88
2023-05-22T08:15:28.588Z,107069.44
2023-05-22T08:16:28.700Z,106577.91
2023-05-22T08:17:28.857Z,106823.68
2023-05-22T08:18:29.503Z,103710.72
2023-05-22T08:19:29.193Z,102727.68
2023-05-22T08:20:29.335Z,101335.04
2023-05-22T08:21:29.464Z,97402.88
2023-05-22T08:22:29.592Z,99942.4
2023-05-22T08:23:29.805Z,99123.2
2023-05-22T08:24:29.907Z,99778.55
2023-05-22T08:25:30.071Z,99614.72
2023-05-22T08:26:32.169Z,97402.88
2023-05-22T08:27:30.374Z,95764.48
2023-05-22T08:28:30.459Z,94289.91
2023-05-22T08:29:31.166Z,85524.48
2023-05-22T08:30:30.758Z,66273.28
2023-05-22T08:31:31.045Z,53698.56
2023-05-22T08:32:31.458Z,60129.28
2023-05-22T08:33:31.132Z,63692.8
2023-05-22T08:34:31.275Z,57098.24
2023-05-22T08:35:31.427Z,57425.92
2023-05-22T08:36:31.550Z,57589.76
2023-05-22T08:37:31.626Z,54272
2023-05-22T08:38:31.782Z,51363.84
2023-05-22T08:39:31.924Z,48128
2023-05-22T08:40:32.082Z,50339.84
2023-05-22T08:41:32.250Z,53288.96
2023-05-22T08:42:32.395Z,54231.04
2023-05-22T08:43:32.530Z,57466.88
2023-05-22T08:44:33.180Z,60538.88
2023-05-22T08:45:32.791Z,64061.44
2023-05-22T08:46:32.976Z,64102.4
2023-05-22T08:47:33.138Z,65658.88
2023-05-22T08:48:33.258Z,62545.92
2023-05-22T08:49:33.364Z,61440
2023-05-22T08:50:33.508Z,57466.88
2023-05-22T08:51:33.647Z,59146.24
2023-05-22T08:52:33.803Z,59842.56
2023-05-22T08:53:34.011Z,59187.2
2023-05-22T08:54:34.131Z,58245.12
2023-05-22T08:55:34.264Z,59883.52
2023-05-22T08:56:37.356Z,60743.68
2023-05-22T08:57:34.559Z,61358.08
2023-05-22T08:58:34.744Z,62996.48
2023-05-22T08:59:35.396Z,63160.32
2023-05-22T09:00:35.018Z,66396.16
2023-05-22T09:01:35.166Z,69140.48
2023-05-22T09:02:35.351Z,64184.32
2023-05-22T09:03:35.468Z,61071.36
2023-05-22T09:04:35.626Z,61112.32
2023-05-22T09:05:35.720Z,61235.2
2023-05-22T09:06:35.885Z,58818.56
2023-05-22T09:07:36.472Z,53166.08
2023-05-22T09:08:36.154Z,50216.96
2023-05-22T09:09:36.294Z,52551.68
2023-05-22T09:10:36.444Z,51159.04
2023-05-22T09:11:36.590Z,50872.32
2023-05-22T09:12:36.745Z,46817.28
2023-05-22T09:13:36.924Z,45998.08
2023-05-22T09:14:37.494Z,44564.48
2023-05-22T09:15:37.123Z,42024.96
2023-05-22T09:16:37.234Z,41369.6
2023-05-22T09:17:37.344Z,42188.8
2023-05-22T09:18:37.460Z,41410.56
2023-05-22T09:19:37.891Z,42475.52
2023-05-22T09:20:38.328Z,44933.12
2023-05-22T09:21:37.912Z,48701.44
2023-05-22T09:22:38.041Z,51281.92
2023-05-22T09:23:38.224Z,52224
2023-05-22T09:24:38.363Z,55255.04
2023-05-22T09:25:38.531Z,58081.28
2023-05-22T09:26:38.662Z,60456.96
2023-05-22T09:27:38.840Z,65003.52
2023-05-22T09:28:38.974Z,66150.4
2023-05-22T09:29:39.809Z,66764.8
2023-05-22T09:30:39.623Z,66723.84
2023-05-22T09:31:39.495Z,64552.96
2023-05-22T09:32:39.601Z,61317.12
2023-05-22T09:33:39.720Z,60497.92
2023-05-22T09:34:39.863Z,62709.76
2023-05-22T09:35:39.981Z,62955.52
2023-05-22T09:36:40.150Z,63283.2
2023-05-22T09:37:40.308Z,57548.8
2023-05-22T09:38:40.396Z,60334.08
2023-05-22T09:39:40.512Z,61685.76
2023-05-22T09:40:40.732Z,64634.88
2023-05-22T09:41:40.804Z,66355.2
2023-05-22T09:42:40.949Z,67788.8
2023-05-22T09:43:41.110Z,71843.84
2023-05-22T09:44:41.742Z,69754.88
2023-05-22T09:46:41.867Z,65495.04
2023-05-22T09:47:41.629Z,67543.04
2023-05-22T09:48:41.762Z,67993.6
2023-05-22T09:49:41.907Z,62177.28
2023-05-22T09:50:42.066Z,59064.32
2023-05-22T09:51:42.171Z,58777.6
2023-05-22T09:52:42.265Z,58941.44
2023-05-22T09:53:42.573Z,58613.76
2023-05-22T09:54:42.753Z,58982.4
2023-05-22T09:55:42.887Z,54435.84
2023-05-22T09:56:43.121Z,58531.84
2023-05-22T09:57:43.166Z,57548.8
2023-05-22T09:58:43.339Z,62177.28
2023-05-22T09:59:44.020Z,62668.8
2023-05-22T10:00:43.635Z,62054.4
2023-05-22T10:01:43.825Z,59596.8
2023-05-22T10:02:43.961Z,58163.2
2023-05-22T10:03:44.122Z,56893.44
2023-05-22T10:04:44.290Z,57589.76
2023-05-22T10:05:44.342Z,53780.48
2023-05-22T10:06:44.502Z,54108.16
2023-05-22T10:07:44.642Z,52428.8
2023-05-22T10:08:44.802Z,53616.64
2023-05-22T10:09:44.942Z,53903.36
2023-05-22T10:10:45.103Z,53002.24
2023-05-22T10:11:45.214Z,51322.88
2023-05-22T10:12:45.338Z,51650.56
2023-05-22T10:13:45.460Z,50053.12
2023-05-22T10:14:46.045Z,48783.36
2023-05-22T10:15:46.238Z,48168.96
2023-05-22T10:16:45.916Z,50298.88
2023-05-22T10:17:46.083Z,50544.64
2023-05-22T10:18:46.329Z,50872.32
2023-05-22T10:19:46.989Z,51159.04
2023-05-22T10:20:46.525Z,50913.28
2023-05-22T10:21:46.668Z,51527.68
2023-05-22T10:22:46.816Z,51240.96
2023-05-22T10:23:46.964Z,49561.6
2023-05-22T10:24:47.118Z,48209.92
2023-05-22T10:25:47.301Z,48865.28
2023-05-22T10:26:47.436Z,48742.4
2023-05-22T10:27:47.572Z,49070.08
2023-05-22T10:28:47.698Z,52387.84
2023-05-22T10:29:48.479Z,53657.6
2023-05-22T10:30:47.990Z,55091.2
2023-05-22T10:31:48.151Z,54968.32
2023-05-22T10:32:48.345Z,51650.56
2023-05-22T10:33:48.503Z,51322.88
2023-05-22T10:34:48.594Z,49397.76
2023-05-22T10:35:48.760Z,48087.04
2023-05-22T10:36:48.901Z,50708.48
2023-05-22T10:37:49.002Z,52264.96
2023-05-22T10:38:49.156Z,50503.68
2023-05-22T10:39:49.286Z,50216.96
2023-05-22T10:40:49.452Z,50053.12
2023-05-22T10:41:49.616Z,48414.72
2023-05-22T10:42:49.762Z,48619.52
2023-05-22T10:43:49.914Z,49520.64
2023-05-22T10:44:50.506Z,49520.64
2023-05-22T10:45:50.258Z,49397.76
2023-05-22T10:46:50.311Z,51650.56
2023-05-22T10:47:50.595Z,53288.96
2023-05-22T10:48:50.573Z,52019.2
2023-05-22T10:49:50.770Z,54272
2023-05-22T10:50:50.812Z,58654.72
2023-05-22T10:51:50.977Z,60375.04
2023-05-22T10:52:51.136Z,62054.4
2023-05-22T10:53:51.276Z,61399.04
2023-05-22T10:54:51.417Z,62341.12
2023-05-22T10:55:51.626Z,62504.96
2023-05-22T10:56:51.727Z,62627.84
2023-05-22T10:57:51.874Z,62627.84
2023-05-22T10:58:52.059Z,61317.12
2023-05-22T10:59:52.188Z,61562.88
2023-05-22T11:00:52.280Z,62504.96
2023-05-22T11:01:52.441Z,63651.84
2023-05-22T11:02:52.608Z,64634.88
2023-05-22T11:03:52.755Z,63242.24
2023-05-22T11:04:52.937Z,62545.92
2023-05-22T11:05:53.053Z,62545.92
2023-05-22T11:06:53.198Z,63160.32
2023-05-22T11:07:53.367Z,62341.12
2023-05-22T11:08:53.530Z,62627.84
2023-05-22T11:09:53.702Z,61112.32
2023-05-22T11:10:53.886Z,59555.84
2023-05-22T11:11:54.050Z,60334.08
2023-05-22T11:12:54.179Z,60416
2023-05-22T11:13:54.320Z,59187.2
2023-05-22T11:14:55.067Z,59596.8
2023-05-22T11:15:54.599Z,57139.2
2023-05-22T11:16:54.753Z,58081.28
2023-05-22T11:17:54.899Z,56811.52
2023-05-22T11:18:55.289Z,57466.88
2023-05-22T11:20:55.794Z,58654.72
2023-05-22T11:22:55.602Z,57180.16
2023-05-22T11:23:55.739Z,57139.2
2023-05-22T11:24:55.900Z,55541.76
2023-05-22T11:25:56.043Z,57180.16
2023-05-22T11:26:56.198Z,56115.2
2023-05-22T11:27:56.499Z,57098.24
2023-05-22T11:28:56.518Z,57876.48
2023-05-22T11:29:57.085Z,59105.28
2023-05-22T11:30:56.782Z,57712.64
2023-05-22T11:31:56.860Z,56360.96
2023-05-22T11:32:57.092Z,57221.12
2023-05-22T11:33:57.149Z,59105.28
2023-05-22T11:34:57.309Z,58982.4
2023-05-22T11:35:57.477Z,60620.8
2023-05-22T11:36:57.611Z,60129.28
2023-05-22T11:37:57.711Z,58777.6
2023-05-22T11:38:57.835Z,59924.48
2023-05-22T11:39:58.002Z,58777.6
2023-05-22T11:40:58.111Z,55255.04
2023-05-22T11:41:58.266Z,54353.92
2023-05-22T11:42:58.441Z,52756.48
2023-05-22T11:43:58.587Z,50626.56
2023-05-22T11:44:59.323Z,48168.96
2023-05-22T11:45:58.884Z,46080
2023-05-22T11:46:59.044Z,46039.04
2023-05-22T11:47:59.242Z,46776.32
2023-05-22T11:48:59.353Z,49315.84
2023-05-22T11:49:59.433Z,48865.28
2023-05-22T11:50:59.551Z,46489.6
2023-05-22T11:51:59.699Z,47431.68
2023-05-22T11:52:59.856Z,46940.16
2023-05-22T11:53:59.996Z,46448.64
2023-05-22T11:55:00.131Z,45670.4
2023-05-22T11:56:00.285Z,46366.72
2023-05-22T11:57:00.440Z,46489.6
2023-05-22T11:58:00.595Z,50585.6
2023-05-22T11:59:00.737Z,52387.84
2023-05-22T12:00:01.490Z,51691.52
2023-05-22T12:01:01.047Z,50544.64
2023-05-22T12:02:01.141Z,50626.56
2023-05-22T12:03:01.302Z,50913.28
2023-05-22T12:04:01.390Z,51281.92
2023-05-22T12:05:01.450Z,51036.16
2023-05-22T12:06:01.622Z,50626.56
2023-05-22T12:07:01.790Z,51036.16
2023-05-22T12:08:01.937Z,50749.44
2023-05-22T12:09:02.082Z,50257.92
2023-05-22T12:10:02.224Z,50380.8
2023-05-22T12:11:02.380Z,50053.12
2023-05-22T12:12:02.537Z,49930.24
2023-05-22T12:13:02.685Z,49356.8
2023-05-22T12:14:02.809Z,47759.36
2023-05-22T12:15:03.262Z,45137.92
2023-05-22T12:16:03.064Z,45711.36
2023-05-22T12:17:03.205Z,42557.44
2023-05-22T12:18:03.302Z,43212.8
2023-05-22T12:19:03.491Z,44318.72
2023-05-22T12:20:03.593Z,45056
2023-05-22T12:21:03.744Z,43376.64